createdAt,value
2022-08-25T00:04:53.580Z,20.7
2022-08-25T00:14:49.486Z,20.7
2022-08-25T00:24:50.098Z,20.6
2022-08-25T00:34:50.605Z,20.4
2022-08-25T00:44:51.030Z,20.2
2022-08-25T00:54:51.280Z,20
2022-08-25T01:04:52.279Z,19.9
2022-08-25T01:24:53.638Z,19.5
2022-08-25T01:34:54.055Z,19.7
2022-08-25T01:44:54.577Z,19.7
2022-08-25T01:54:55.391Z,19.4
2022-08-25T02:04:55.691Z,19.3
2022-08-25T02:14:55.999Z,19.2
2022-08-25T02:24:56.127Z,19.3
2022-08-25T02:34:56.524Z,19.4
2022-08-25T02:54:58.084Z,19
2022-08-25T03:04:58.335Z,19.2
2022-08-25T03:14:59.043Z,19.2
2022-08-25T03:24:59.805Z,19.2
2022-08-25T03:35:00.738Z,19.2
2022-08-25T03:45:00.847Z,19.3
2022-08-25T03:55:01.609Z,19.1
2022-08-25T04:05:01.849Z,19.1
2022-08-25T04:15:02.706Z,19.1
2022-08-25T04:25:03.151Z,18.9
2022-08-25T04:35:03.378Z,18.8
2022-08-25T04:45:03.531Z,18.7
2022-08-25T04:55:04.481Z,18.7
2022-08-25T05:05:05.391Z,18.7
2022-08-25T05:15:05.620Z,18.8
2022-08-25T05:25:06.489Z,18.9
2022-08-25T05:45:08.147Z,19.3
2022-08-25T06:05:08.630Z,19.7
2022-08-25T06:15:09.239Z,20.3
2022-08-25T06:25:10.246Z,20.8
2022-08-25T06:35:10.804Z,21.4
2022-08-25T06:45:11.723Z,21.6
2022-08-25T06:55:12.222Z,21.8
2022-08-25T07:05:13.502Z,22
2022-08-25T07:15:20.108Z,22.5
2022-08-25T07:25:12.937Z,22.9
2022-08-25T07:35:13.299Z,23.5
2022-08-25T07:55:17.897Z,24.6
2022-08-25T08:05:14.253Z,25
2022-08-25T08:15:15.140Z,25.2
2022-08-25T08:25:18.606Z,25.7
2022-08-25T08:35:16.662Z,26.2
2022-08-25T08:45:16.991Z,26.6
2022-08-25T09:05:18.191Z,27.5
2022-08-25T09:15:18.992Z,28.3
2022-08-25T09:25:25.671Z,28.7
2022-08-25T09:35:19.867Z,29
2022-08-25T09:45:20.541Z,29.5
2022-08-25T09:55:20.908Z,29.9
2022-08-25T10:05:23.302Z,30.3
2022-08-25T10:15:29.354Z,30.3
2022-08-25T10:25:21.764Z,30.3
2022-08-25T10:35:22.082Z,30.7
2022-08-25T10:55:23.835Z,30.8
2022-08-25T11:05:24.943Z,30.6
2022-08-25T11:25:25.584Z,31.2
2022-08-25T11:35:26.004Z,31.3
2022-08-25T11:45:26.383Z,31.6
2022-08-25T11:55:27.307Z,31.3
2022-08-25T12:05:27.426Z,31.9
2022-08-25T12:15:27.788Z,32
2022-08-25T12:25:28.622Z,31.6
2022-08-25T12:35:29.420Z,32.1
2022-08-25T12:45:29.067Z,31.9
2022-08-25T12:45:50.989Z,31.9
2022-08-25T12:55:35.276Z,32.6
2022-08-25T13:05:36.059Z,33
2022-08-25T13:25:37.394Z,32.7
2022-08-25T13:35:38.035Z,32.6
2022-08-25T13:45:41.383Z,32
2022-08-25T13:55:50.603Z,31.6
2022-08-25T14:05:39.422Z,32.4
2022-08-25T14:15:40.463Z,33.5
2022-08-25T14:25:42.321Z,33
2022-08-25T14:35:41.834Z,32.2
2022-08-25T14:45:42.197Z,31.6
2022-08-25T14:55:42.695Z,31.4
2022-08-25T15:05:43.166Z,32.1
2022-08-25T15:25:43.899Z,32.6
2022-08-25T15:35:45.157Z,32.8
2022-08-25T15:45:46.292Z,32.7
2022-08-25T15:55:46.342Z,32.5
2022-08-25T16:05:47.872Z,32.2
2022-08-25T16:15:48.144Z,31.9
2022-08-25T16:25:48.413Z,31.6
2022-08-25T16:35:49.432Z,31.5
2022-08-25T16:45:49.574Z,31.4
2022-08-25T16:55:50.003Z,31.5
2022-08-25T17:05:50.721Z,31.3
2022-08-25T17:15:52.215Z,31.1
2022-08-25T17:25:52.002Z,30.9
2022-08-25T17:35:52.384Z,30.7
2022-08-25T17:45:52.944Z,30.6
2022-08-25T17:55:53.038Z,30.4
2022-08-25T18:05:53.165Z,30.1
2022-08-25T18:15:53.818Z,29.9
2022-08-25T18:26:00.614Z,29.5
2022-08-25T18:35:55.203Z,29.2
2022-08-25T18:45:55.973Z,28.9
2022-08-25T18:55:56.652Z,28.5
2022-08-25T19:05:57.903Z,28.2
2022-08-25T19:15:57.957Z,27.9
2022-08-25T19:25:58.500Z,27.7
2022-08-25T19:35:58.740Z,27.3
2022-08-25T19:45:59.712Z,27.1
2022-08-25T19:56:00.722Z,26.8
2022-08-25T20:06:01.243Z,26.6
2022-08-25T20:16:02.197Z,26.5
2022-08-25T20:26:03.010Z,26.4
2022-08-25T20:36:03.377Z,26.1
2022-08-25T20:46:04.160Z,25.8
2022-08-25T20:56:04.239Z,25.7
2022-08-25T21:06:05.300Z,25.5
2022-08-25T21:16:06.143Z,25.1
2022-08-25T21:26:06.357Z,24.6
2022-08-25T21:36:06.908Z,24.5
2022-08-25T21:46:08.007Z,24.3
2022-08-25T21:56:08.357Z,24.2
2022-08-25T22:06:09.324Z,24.1
2022-08-25T22:16:10.190Z,23.9
2022-08-25T22:26:11.159Z,23.6
2022-08-25T22:36:11.651Z,23.2
2022-08-25T22:46:12.603Z,22.7
2022-08-25T22:56:12.869Z,22.4
2022-08-25T23:16:14.494Z,21.8
2022-08-25T23:26:15.148Z,21.6
2022-08-25T23:36:16.053Z,21.5
2022-08-25T23:56:16.516Z,21.2
